sensor_id;sensor_type;location;lat;lon;timestamp;P1;durP1;ratioP1;P2;durP2;ratioP2
21183;SDS011;18176;49.502;11.754;2023-10-13T00:01:39;15.65;;;9.75;;
21183;SDS011;18176;49.502;11.754;2023-10-13T00:05:40;16.58;;;9.57;;
21183;SDS011;18176;49.502;11.754;2023-10-13T00:09:42;18.63;;;10.07;;
21183;SDS011;18176;49.502;11.754;2023-10-13T00:13:42;16.10;;;8.77;;
21183;SDS011;18176;49.502;11.754;2023-10-13T00:17:49;19.88;;;10.60;;
21183;SDS011;18176;49.502;11.754;2023-10-13T00:21:50;24.17;;;14.27;;
21183;SDS011;18176;49.502;11.754;2023-10-13T00:25:52;30.52;;;13.30;;
21183;SDS011;18176;49.502;11.754;2023-10-13T00:29:59;20.58;;;12.32;;
21183;SDS011;18176;49.502;11.754;2023-10-13T00:34:21;30.85;;;16.95;;
21183;SDS011;18176;49.502;11.754;2023-10-13T00:38:25;30.00;;;14.93;;
21183;SDS011;18176;49.502;11.754;2023-10-13T00:42:26;27.83;;;15.57;;
21183;SDS011;18176;49.502;11.754;2023-10-13T00:46:44;32.72;;;18.05;;
21183;SDS011;18176;49.502;11.754;2023-10-13T00:50:48;33.33;;;19.42;;
21183;SDS011;18176;49.502;11.754;2023-10-13T00:54:49;40.58;;;20.25;;
21183;SDS011;18176;49.502;11.754;2023-10-13T00:58:52;39.70;;;22.13;;
21183;SDS011;18176;49.502;11.754;2023-10-13T01:02:56;42.35;;;21.80;;
21183;SDS011;18176;49.502;11.754;2023-10-13T01:07:06;46.08;;;21.70;;
21183;SDS011;18176;49.502;11.754;2023-10-13T01:11:08;46.80;;;24.92;;
21183;SDS011;18176;49.502;11.754;2023-10-13T01:15:10;42.75;;;22.83;;
21183;SDS011;18176;49.502;11.754;2023-10-13T01:19:14;41.00;;;21.38;;
21183;SDS011;18176;49.502;11.754;2023-10-13T01:23:24;33.08;;;19.17;;
21183;SDS011;18176;49.502;11.754;2023-10-13T01:27:25;32.90;;;19.08;;
21183;SDS011;18176;49.502;11.754;2023-10-13T01:31:26;33.95;;;20.60;;
21183;SDS011;18176;49.502;11.754;2023-10-13T01:35:34;40.97;;;24.02;;
21183;SDS011;18176;49.502;11.754;2023-10-13T01:39:42;41.67;;;23.65;;
21183;SDS011;18176;49.502;11.754;2023-10-13T01:43:45;41.70;;;23.63;;
21183;SDS011;18176;49.502;11.754;2023-10-13T01:47:46;38.97;;;22.95;;
21183;SDS011;18176;49.502;11.754;2023-10-13T01:51:47;39.78;;;23.00;;
21183;SDS011;18176;49.502;11.754;2023-10-13T01:55:50;34.47;;;21.30;;
21183;SDS011;18176;49.502;11.754;2023-10-13T01:59:53;37.38;;;21.65;;
21183;SDS011;18176;49.502;11.754;2023-10-13T02:04:07;32.15;;;19.88;;
21183;SDS011;18176;49.502;11.754;2023-10-13T02:08:08;31.10;;;19.92;;
21183;SDS011;18176;49.502;11.754;2023-10-13T02:12:10;33.85;;;19.25;;
21183;SDS011;18176;49.502;11.754;2023-10-13T02:16:13;36.45;;;20.52;;
21183;SDS011;18176;49.502;11.754;2023-10-13T02:20:15;32.67;;;19.38;;
21183;SDS011;18176;49.502;11.754;2023-10-13T02:24:19;30.35;;;18.55;;
21183;SDS011;18176;49.502;11.754;2023-10-13T02:28:29;29.55;;;18.50;;
21183;SDS011;18176;49.502;11.754;2023-10-13T02:32:31;26.02;;;16.67;;
21183;SDS011;18176;49.502;11.754;2023-10-13T02:36:37;23.95;;;15.98;;
21183;SDS011;18176;49.502;11.754;2023-10-13T02:40:43;28.90;;;17.33;;
21183;SDS011;18176;49.502;11.754;2023-10-13T02:44:47;33.35;;;18.92;;
21183;SDS011;18176;49.502;11.754;2023-10-13T02:48:47;28.38;;;17.63;;
21183;SDS011;18176;49.502;11.754;2023-10-13T02:52:56;21.45;;;15.55;;
21183;SDS011;18176;49.502;11.754;2023-10-13T02:56:57;29.40;;;17.60;;
21183;SDS011;18176;49.502;11.754;2023-10-13T03:01:03;25.67;;;15.80;;
21183;SDS011;18176;49.502;11.754;2023-10-13T03:05:14;26.17;;;16.13;;
21183;SDS011;18176;49.502;11.754;2023-10-13T03:09:17;21.70;;;15.70;;
21183;SDS011;18176;49.502;11.754;2023-10-13T03:13:19;27.27;;;16.90;;
21183;SDS011;18176;49.502;11.754;2023-10-13T03:17:22;25.13;;;15.70;;
21183;SDS011;18176;49.502;11.754;2023-10-13T03:21:30;30.20;;;18.05;;
21183;SDS011;18176;49.502;11.754;2023-10-13T03:25:33;30.08;;;16.85;;
21183;SDS011;18176;49.502;11.754;2023-10-13T03:29:39;28.17;;;15.40;;
21183;SDS011;18176;49.502;11.754;2023-10-13T03:33:42;25.45;;;14.18;;
21183;SDS011;18176;49.502;11.754;2023-10-13T03:37:44;25.27;;;15.20;;
21183;SDS011;18176;49.502;11.754;2023-10-13T03:41:45;25.30;;;14.57;;
21183;SDS011;18176;49.502;11.754;2023-10-13T03:45:52;26.60;;;13.60;;
21183;SDS011;18176;49.502;11.754;2023-10-13T03:50:00;22.92;;;13.40;;
21183;SDS011;18176;49.502;11.754;2023-10-13T03:54:14;21.02;;;14.10;;
21183;SDS011;18176;49.502;11.754;2023-10-13T03:58:15;23.92;;;14.38;;
21183;SDS011;18176;49.502;11.754;2023-10-13T04:02:20;23.50;;;14.25;;
21183;SDS011;18176;49.502;11.754;2023-10-13T04:06:27;23.85;;;14.95;;
21183;SDS011;18176;49.502;11.754;2023-10-13T04:10:45;24.15;;;14.40;;
21183;SDS011;18176;49.502;11.754;2023-10-13T04:14:58;30.92;;;15.60;;
21183;SDS011;18176;49.502;11.754;2023-10-13T04:19:10;26.27;;;14.30;;
21183;SDS011;18176;49.502;11.754;2023-10-13T04:23:22;24.00;;;13.18;;
21183;SDS011;18176;49.502;11.754;2023-10-13T04:27:44;25.48;;;14.45;;
21183;SDS011;18176;49.502;11.754;2023-10-13T04:32:13;24.50;;;14.80;;
21183;SDS011;18176;49.502;11.754;2023-10-13T04:36:25;25.90;;;15.30;;
21183;SDS011;18176;49.502;11.754;2023-10-13T04:40:44;25.97;;;14.70;;
21183;SDS011;18176;49.502;11.754;2023-10-13T04:44:57;21.25;;;13.82;;
21183;SDS011;18176;49.502;11.754;2023-10-13T04:49:12;20.38;;;13.57;;
21183;SDS011;18176;49.502;11.754;2023-10-13T04:53:25;25.10;;;13.85;;
21183;SDS011;18176;49.502;11.754;2023-10-13T04:57:33;31.38;;;16.58;;
21183;SDS011;18176;49.502;11.754;2023-10-13T05:01:43;31.98;;;16.58;;
21183;SDS011;18176;49.502;11.754;2023-10-13T05:06:06;23.38;;;15.15;;
21183;SDS011;18176;49.502;11.754;2023-10-13T05:10:25;31.13;;;16.48;;
21183;SDS011;18176;49.502;11.754;2023-10-13T05:14:40;33.27;;;15.63;;
21183;SDS011;18176;49.502;11.754;2023-10-13T05:18:59;34.92;;;16.67;;
21183;SDS011;18176;49.502;11.754;2023-10-13T05:23:27;26.85;;;16.80;;
21183;SDS011;18176;49.502;11.754;2023-10-13T05:27:39;27.13;;;16.10;;
21183;SDS011;18176;49.502;11.754;2023-10-13T05:31:55;29.75;;;15.73;;
21183;SDS011;18176;49.502;11.754;2023-10-13T05:36:11;24.65;;;14.18;;
21183;SDS011;18176;49.502;11.754;2023-10-13T05:40:24;22.80;;;14.67;;
21183;SDS011;18176;49.502;11.754;2023-10-13T05:44:38;25.23;;;15.20;;
21183;SDS011;18176;49.502;11.754;2023-10-13T05:48:55;25.00;;;14.43;;
21183;SDS011;18176;49.502;11.754;2023-10-13T05:53:23;23.30;;;13.38;;
21183;SDS011;18176;49.502;11.754;2023-10-13T05:57:36;23.38;;;13.57;;
21183;SDS011;18176;49.502;11.754;2023-10-13T06:01:49;20.70;;;12.73;;
21183;SDS011;18176;49.502;11.754;2023-10-13T06:06:06;24.73;;;12.73;;
21183;SDS011;18176;49.502;11.754;2023-10-13T06:10:19;20.52;;;12.13;;
21183;SDS011;18176;49.502;11.754;2023-10-13T06:14:32;20.33;;;11.98;;
21183;SDS011;18176;49.502;11.754;2023-10-13T06:18:45;19.52;;;11.93;;
21183;SDS011;18176;49.502;11.754;2023-10-13T06:23:01;26.05;;;13.35;;
21183;SDS011;18176;49.502;11.754;2023-10-13T06:27:14;24.30;;;12.23;;
21183;SDS011;18176;49.502;11.754;2023-10-13T06:31:27;19.35;;;12.70;;
21183;SDS011;18176;49.502;11.754;2023-10-13T06:35:28;22.05;;;12.23;;
21183;SDS011;18176;49.502;11.754;2023-10-13T06:39:33;24.08;;;13.07;;
21183;SDS011;18176;49.502;11.754;2023-10-13T06:43:35;20.05;;;11.80;;
21183;SDS011;18176;49.502;11.754;2023-10-13T06:47:40;20.92;;;11.88;;
21183;SDS011;18176;49.502;11.754;2023-10-13T06:51:41;21.92;;;11.45;;
21183;SDS011;18176;49.502;11.754;2023-10-13T06:55:46;16.45;;;10.90;;
21183;SDS011;18176;49.502;11.754;2023-10-13T06:59:49;18.25;;;11.27;;
21183;SDS011;18176;49.502;11.754;2023-10-13T07:03:51;18.98;;;10.55;;
21183;SDS011;18176;49.502;11.754;2023-10-13T07:07:58;18.67;;;10.02;;
21183;SDS011;18176;49.502;11.754;2023-10-13T07:12:04;14.90;;;9.32;;
21183;SDS011;18176;49.502;11.754;2023-10-13T07:16:13;16.50;;;8.55;;
21183;SDS011;18176;49.502;11.754;2023-10-13T07:20:26;15.18;;;8.75;;
21183;SDS011;18176;49.502;11.754;2023-10-13T07:24:33;13.60;;;8.23;;
21183;SDS011;18176;49.502;11.754;2023-10-13T07:28:39;15.90;;;7.60;;
21183;SDS011;18176;49.502;11.754;2023-10-13T07:32:40;12.93;;;7.40;;
21183;SDS011;18176;49.502;11.754;2023-10-13T07:36:44;12.50;;;7.55;;
21183;SDS011;18176;49.502;11.754;2023-10-13T07:40:48;14.88;;;7.30;;
21183;SDS011;18176;49.502;11.754;2023-10-13T07:44:52;14.50;;;7.43;;
21183;SDS011;18176;49.502;11.754;2023-10-13T07:48:54;14.07;;;7.13;;
21183;SDS011;18176;49.502;11.754;2023-10-13T07:53:05;11.57;;;6.50;;
21183;SDS011;18176;49.502;11.754;2023-10-13T07:57:19;12.18;;;6.15;;
21183;SDS011;18176;49.502;11.754;2023-10-13T08:01:28;11.32;;;5.80;;
21183;SDS011;18176;49.502;11.754;2023-10-13T08:05:29;12.18;;;6.30;;
21183;SDS011;18176;49.502;11.754;2023-10-13T08:09:36;14.48;;;6.13;;
21183;SDS011;18176;49.502;11.754;2023-10-13T08:13:38;9.45;;;6.00;;
21183;SDS011;18176;49.502;11.754;2023-10-13T08:18:05;12.02;;;6.25;;
21183;SDS011;18176;49.502;11.754;2023-10-13T08:22:14;10.55;;;5.72;;
21183;SDS011;18176;49.502;11.754;2023-10-13T08:26:33;12.40;;;5.88;;
21183;SDS011;18176;49.502;11.754;2023-10-13T08:30:45;14.50;;;5.47;;
21183;SDS011;18176;49.502;11.754;2023-10-13T08:34:56;11.85;;;5.07;;
21183;SDS011;18176;49.502;11.754;2023-10-13T08:39:19;12.70;;;5.28;;
21183;SDS011;18176;49.502;11.754;2023-10-13T08:43:32;14.82;;;5.38;;
21183;SDS011;18176;49.502;11.754;2023-10-13T08:47:41;14.27;;;5.45;;
21183;SDS011;18176;49.502;11.754;2023-10-13T08:51:53;8.35;;;5.03;;
21183;SDS011;18176;49.502;11.754;2023-10-13T08:56:24;12.93;;;5.13;;
21183;SDS011;18176;49.502;11.754;2023-10-13T09:00:40;10.30;;;4.88;;
21183;SDS011;18176;49.502;11.754;2023-10-13T09:05:09;10.60;;;5.60;;
21183;SDS011;18176;49.502;11.754;2023-10-13T09:09:44;11.45;;;5.25;;
21183;SDS011;18176;49.502;11.754;2023-10-13T09:14:12;10.40;;;5.10;;
21183;SDS011;18176;49.502;11.754;2023-10-13T09:18:30;14.82;;;5.70;;
21183;SDS011;18176;49.502;11.754;2023-10-13T09:22:50;14.60;;;5.10;;
21183;SDS011;18176;49.502;11.754;2023-10-13T09:27:07;19.08;;;5.65;;
21183;SDS011;18176;49.502;11.754;2023-10-13T09:31:09;11.02;;;5.32;;
21183;SDS011;18176;49.502;11.754;2023-10-13T09:35:11;12.77;;;5.50;;
21183;SDS011;18176;49.502;11.754;2023-10-13T09:39:19;11.00;;;5.10;;
21183;SDS011;18176;49.502;11.754;2023-10-13T09:43:34;10.10;;;5.13;;
21183;SDS011;18176;49.502;11.754;2023-10-13T09:47:34;10.98;;;5.10;;
21183;SDS011;18176;49.502;11.754;2023-10-13T09:51:37;11.10;;;4.80;;
21183;SDS011;18176;49.502;11.754;2023-10-13T09:55:42;11.73;;;5.40;;
21183;SDS011;18176;49.502;11.754;2023-10-13T09:59:51;10.85;;;5.25;;
21183;SDS011;18176;49.502;11.754;2023-10-13T10:04:07;13.40;;;5.65;;
21183;SDS011;18176;49.502;11.754;2023-10-13T10:08:12;8.43;;;4.80;;
21183;SDS011;18176;49.502;11.754;2023-10-13T10:12:31;8.55;;;5.03;;
21183;SDS011;18176;49.502;11.754;2023-10-13T10:16:55;9.50;;;4.85;;
21183;SDS011;18176;49.502;11.754;2023-10-13T10:21:07;11.27;;;5.40;;
21183;SDS011;18176;49.502;11.754;2023-10-13T10:25:07;17.88;;;4.95;;
21183;SDS011;18176;49.502;11.754;2023-10-13T10:29:21;13.75;;;5.40;;
21183;SDS011;18176;49.502;11.754;2023-10-13T10:33:29;12.95;;;5.35;;
21183;SDS011;18176;49.502;11.754;2023-10-13T10:37:31;14.65;;;5.22;;
21183;SDS011;18176;49.502;11.754;2023-10-13T10:41:33;8.98;;;4.93;;
21183;SDS011;18176;49.502;11.754;2023-10-13T10:45:45;12.32;;;5.22;;
21183;SDS011;18176;49.502;11.754;2023-10-13T10:49:51;8.90;;;5.00;;
21183;SDS011;18176;49.502;11.754;2023-10-13T10:53:52;10.60;;;4.93;;
21183;SDS011;18176;49.502;11.754;2023-10-13T10:57:58;10.00;;;4.80;;
21183;SDS011;18176;49.502;11.754;2023-10-13T11:02:01;8.85;;;4.85;;
21183;SDS011;18176;49.502;11.754;2023-10-13T11:06:06;9.45;;;4.60;;
21183;SDS011;18176;49.502;11.754;2023-10-13T11:10:14;10.30;;;5.00;;
21183;SDS011;18176;49.502;11.754;2023-10-13T11:14:24;10.98;;;4.85;;
21183;SDS011;18176;49.502;11.754;2023-10-13T11:18:30;13.13;;;4.85;;
21183;SDS011;18176;49.502;11.754;2023-10-13T11:22:40;10.07;;;4.10;;
21183;SDS011;18176;49.502;11.754;2023-10-13T11:26:44;9.68;;;4.80;;
21183;SDS011;18176;49.502;11.754;2023-10-13T11:30:49;10.15;;;4.63;;
21183;SDS011;18176;49.502;11.754;2023-10-13T11:34:49;13.95;;;4.53;;
21183;SDS011;18176;49.502;11.754;2023-10-13T11:38:54;9.27;;;4.80;;
21183;SDS011;18176;49.502;11.754;2023-10-13T11:42:54;8.85;;;4.05;;
21183;SDS011;18176;49.502;11.754;2023-10-13T11:46:55;8.80;;;4.22;;
21183;SDS011;18176;49.502;11.754;2023-10-13T11:51:13;8.48;;;4.03;;
21183;SDS011;18176;49.502;11.754;2023-10-13T11:55:23;11.23;;;4.60;;
21183;SDS011;18176;49.502;11.754;2023-10-13T11:59:23;8.88;;;4.32;;
21183;SDS011;18176;49.502;11.754;2023-10-13T12:03:24;15.80;;;4.45;;
21183;SDS011;18176;49.502;11.754;2023-10-13T12:07:37;12.45;;;4.55;;
21183;SDS011;18176;49.502;11.754;2023-10-13T12:12:03;10.68;;;4.57;;
21183;SDS011;18176;49.502;11.754;2023-10-13T12:16:04;8.55;;;4.18;;
21183;SDS011;18176;49.502;11.754;2023-10-13T12:20:06;11.52;;;4.10;;
21183;SDS011;18176;49.502;11.754;2023-10-13T12:24:14;17.63;;;4.70;;
21183;SDS011;18176;49.502;11.754;2023-10-13T12:28:39;10.50;;;4.05;;
21183;SDS011;18176;49.502;11.754;2023-10-13T12:32:48;9.20;;;4.18;;
21183;SDS011;18176;49.502;11.754;2023-10-13T12:37:03;13.23;;;4.18;;
21183;SDS011;18176;49.502;11.754;2023-10-13T12:41:25;9.88;;;4.28;;
21183;SDS011;18176;49.502;11.754;2023-10-13T12:45:41;8.95;;;4.35;;
21183;SDS011;18176;49.502;11.754;2023-10-13T12:49:55;12.95;;;4.28;;
21183;SDS011;18176;49.502;11.754;2023-10-13T12:54:05;12.80;;;4.30;;
21183;SDS011;18176;49.502;11.754;2023-10-13T12:58:13;9.73;;;4.25;;
21183;SDS011;18176;49.502;11.754;2023-10-13T13:02:16;10.45;;;3.88;;
21183;SDS011;18176;49.502;11.754;2023-10-13T13:06:17;11.70;;;4.00;;
21183;SDS011;18176;49.502;11.754;2023-10-13T13:10:21;12.25;;;4.25;;
21183;SDS011;18176;49.502;11.754;2023-10-13T13:14:38;21.17;;;4.57;;
21183;SDS011;18176;49.502;11.754;2023-10-13T13:18:45;7.38;;;3.47;;
21183;SDS011;18176;49.502;11.754;2023-10-13T13:22:46;8.85;;;3.75;;
21183;SDS011;18176;49.502;11.754;2023-10-13T13:26:46;12.10;;;3.75;;
21183;SDS011;18176;49.502;11.754;2023-10-13T13:30:52;9.15;;;4.25;;
21183;SDS011;18176;49.502;11.754;2023-10-13T13:34:55;16.60;;;4.15;;
21183;SDS011;18176;49.502;11.754;2023-10-13T13:39:01;12.43;;;4.25;;
21183;SDS011;18176;49.502;11.754;2023-10-13T13:43:03;9.20;;;3.95;;
21183;SDS011;18176;49.502;11.754;2023-10-13T13:47:04;10.40;;;4.43;;
21183;SDS011;18176;49.502;11.754;2023-10-13T13:51:11;9.38;;;4.00;;
21183;SDS011;18176;49.502;11.754;2023-10-13T13:55:16;8.55;;;3.67;;
21183;SDS011;18176;49.502;11.754;2023-10-13T13:59:16;9.05;;;3.92;;
21183;SDS011;18176;49.502;11.754;2023-10-13T14:03:16;10.23;;;4.13;;
21183;SDS011;18176;49.502;11.754;2023-10-13T14:07:31;16.25;;;4.45;;
21183;SDS011;18176;49.502;11.754;2023-10-13T14:11:32;12.25;;;3.90;;
21183;SDS011;18176;49.502;11.754;2023-10-13T14:15:45;11.88;;;3.55;;
21183;SDS011;18176;49.502;11.754;2023-10-13T14:19:46;12.20;;;3.80;;
21183;SDS011;18176;49.502;11.754;2023-10-13T14:23:50;9.75;;;3.80;;
21183;SDS011;18176;49.502;11.754;2023-10-13T14:27:52;13.23;;;3.88;;
21183;SDS011;18176;49.502;11.754;2023-10-13T14:31:55;12.90;;;3.88;;
21183;SDS011;18176;49.502;11.754;2023-10-13T14:35:56;12.90;;;3.85;;
21183;SDS011;18176;49.502;11.754;2023-10-13T14:39:59;11.25;;;3.83;;
21183;SDS011;18176;49.502;11.754;2023-10-13T14:43:59;12.90;;;3.80;;
21183;SDS011;18176;49.502;11.754;2023-10-13T14:48:02;7.50;;;3.33;;
21183;SDS011;18176;49.502;11.754;2023-10-13T14:52:05;6.43;;;3.70;;
21183;SDS011;18176;49.502;11.754;2023-10-13T14:56:11;9.35;;;3.50;;
21183;SDS011;18176;49.502;11.754;2023-10-13T15:00:12;7.65;;;3.35;;
21183;SDS011;18176;49.502;11.754;2023-10-13T15:04:22;8.25;;;3.55;;
21183;SDS011;18176;49.502;11.754;2023-10-13T15:08:25;18.45;;;4.18;;
21183;SDS011;18176;49.502;11.754;2023-10-13T15:12:28;14.18;;;3.47;;
21183;SDS011;18176;49.502;11.754;2023-10-13T15:16:28;9.68;;;3.30;;
21183;SDS011;18176;49.502;11.754;2023-10-13T15:20:30;12.98;;;3.55;;
21183;SDS011;18176;49.502;11.754;2023-10-13T15:24:37;11.82;;;3.72;;
21183;SDS011;18176;49.502;11.754;2023-10-13T15:28:44;12.43;;;3.85;;
21183;SDS011;18176;49.502;11.754;2023-10-13T15:32:50;7.90;;;3.55;;
21183;SDS011;18176;49.502;11.754;2023-10-13T15:36:50;8.57;;;3.65;;
21183;SDS011;18176;49.502;11.754;2023-10-13T15:40:52;11.18;;;3.72;;
21183;SDS011;18176;49.502;11.754;2023-10-13T15:44:57;7.90;;;3.55;;
21183;SDS011;18176;49.502;11.754;2023-10-13T15:48:57;11.82;;;3.38;;
21183;SDS011;18176;49.502;11.754;2023-10-13T15:53:05;10.18;;;3.42;;
21183;SDS011;18176;49.502;11.754;2023-10-13T15:57:09;9.07;;;3.50;;
21183;SDS011;18176;49.502;11.754;2023-10-13T16:01:16;12.73;;;3.70;;
21183;SDS011;18176;49.502;11.754;2023-10-13T16:05:20;9.57;;;3.60;;
21183;SDS011;18176;49.502;11.754;2023-10-13T16:09:22;12.65;;;4.10;;
21183;SDS011;18176;49.502;11.754;2023-10-13T16:13:24;9.75;;;3.65;;
21183;SDS011;18176;49.502;11.754;2023-10-13T16:17:27;11.45;;;3.50;;
21183;SDS011;18176;49.502;11.754;2023-10-13T16:21:28;8.93;;;3.15;;
21183;SDS011;18176;49.502;11.754;2023-10-13T16:25:30;17.17;;;3.58;;
21183;SDS011;18176;49.502;11.754;2023-10-13T16:29:31;9.75;;;3.60;;
21183;SDS011;18176;49.502;11.754;2023-10-13T16:33:33;9.48;;;3.58;;
21183;SDS011;18176;49.502;11.754;2023-10-13T16:37:36;11.57;;;3.53;;
21183;SDS011;18176;49.502;11.754;2023-10-13T16:41:37;16.58;;;4.35;;
21183;SDS011;18176;49.502;11.754;2023-10-13T16:45:38;10.23;;;3.88;;
21183;SDS011;18176;49.502;11.754;2023-10-13T16:49:43;10.98;;;3.13;;
21183;SDS011;18176;49.502;11.754;2023-10-13T16:53:44;8.85;;;3.55;;
21183;SDS011;18176;49.502;11.754;2023-10-13T16:57:46;9.63;;;3.25;;
21183;SDS011;18176;49.502;11.754;2023-10-13T17:01:48;11.13;;;4.40;;
21183;SDS011;18176;49.502;11.754;2023-10-13T17:05:51;11.43;;;4.00;;
21183;SDS011;18176;49.502;11.754;2023-10-13T17:09:51;13.52;;;3.40;;
21183;SDS011;18176;49.502;11.754;2023-10-13T17:13:53;11.55;;;3.80;;
21183;SDS011;18176;49.502;11.754;2023-10-13T17:17:55;9.07;;;2.90;;
21183;SDS011;18176;49.502;11.754;2023-10-13T17:22:05;8.38;;;3.35;;
21183;SDS011;18176;49.502;11.754;2023-10-13T17:26:05;8.32;;;3.00;;
21183;SDS011;18176;49.502;11.754;2023-10-13T17:30:08;8.10;;;2.83;;
21183;SDS011;18176;49.502;11.754;2023-10-13T17:34:09;9.85;;;3.40;;
21183;SDS011;18176;49.502;11.754;2023-10-13T17:38:13;7.60;;;3.30;;
21183;SDS011;18176;49.502;11.754;2023-10-13T17:42:14;7.80;;;3.13;;
21183;SDS011;18176;49.502;11.754;2023-10-13T17:46:15;14.15;;;6.75;;
21183;SDS011;18176;49.502;11.754;2023-10-13T17:50:18;17.13;;;7.80;;
21183;SDS011;18176;49.502;11.754;2023-10-13T17:54:21;17.35;;;7.18;;
21183;SDS011;18176;49.502;11.754;2023-10-13T17:58:21;17.38;;;7.15;;
21183;SDS011;18176;49.502;11.754;2023-10-13T18:02:22;12.80;;;6.43;;
21183;SDS011;18176;49.502;11.754;2023-10-13T18:06:23;17.38;;;7.78;;
21183;SDS011;18176;49.502;11.754;2023-10-13T18:10:26;16.73;;;7.38;;
21183;SDS011;18176;49.502;11.754;2023-10-13T18:14:26;18.40;;;7.90;;
21183;SDS011;18176;49.502;11.754;2023-10-13T18:18:27;11.40;;;6.20;;
21183;SDS011;18176;49.502;11.754;2023-10-13T18:22:28;16.98;;;6.80;;
21183;SDS011;18176;49.502;11.754;2023-10-13T18:26:31;14.60;;;6.40;;
21183;SDS011;18176;49.502;11.754;2023-10-13T18:30:31;15.52;;;7.05;;
21183;SDS011;18176;49.502;11.754;2023-10-13T18:34:32;15.68;;;6.78;;
21183;SDS011;18176;49.502;11.754;2023-10-13T18:38:34;18.17;;;8.85;;
21183;SDS011;18176;49.502;11.754;2023-10-13T18:42:37;14.50;;;7.82;;
21183;SDS011;18176;49.502;11.754;2023-10-13T18:46:44;22.30;;;11.80;;
21183;SDS011;18176;49.502;11.754;2023-10-13T18:50:45;28.15;;;16.55;;
21183;SDS011;18176;49.502;11.754;2023-10-13T18:54:51;24.92;;;14.85;;
21183;SDS011;18176;49.502;11.754;2023-10-13T18:58:54;19.80;;;11.05;;
21183;SDS011;18176;49.502;11.754;2023-10-13T19:02:59;20.08;;;12.35;;
21183;SDS011;18176;49.502;11.754;2023-10-13T19:07:02;19.80;;;12.50;;
21183;SDS011;18176;49.502;11.754;2023-10-13T19:11:03;21.95;;;12.45;;
21183;SDS011;18176;49.502;11.754;2023-10-13T19:15:08;20.67;;;11.80;;
21183;SDS011;18176;49.502;11.754;2023-10-13T19:19:13;23.60;;;13.77;;
21183;SDS011;18176;49.502;11.754;2023-10-13T19:23:13;25.23;;;15.05;;
21183;SDS011;18176;49.502;11.754;2023-10-13T19:27:13;25.98;;;16.00;;
21183;SDS011;18176;49.502;11.754;2023-10-13T19:31:17;11.15;;;6.68;;
21183;SDS011;18176;49.502;11.754;2023-10-13T19:35:18;14.35;;;6.03;;
21183;SDS011;18176;49.502;11.754;2023-10-13T19:39:19;17.25;;;7.07;;
21183;SDS011;18176;49.502;11.754;2023-10-13T19:43:25;14.63;;;5.13;;
21183;SDS011;18176;49.502;11.754;2023-10-13T19:47:27;10.10;;;4.72;;
21183;SDS011;18176;49.502;11.754;2023-10-13T19:51:28;15.07;;;4.25;;
21183;SDS011;18176;49.502;11.754;2023-10-13T19:55:36;11.98;;;3.78;;
21183;SDS011;18176;49.502;11.754;2023-10-13T19:59:37;7.35;;;3.60;;
21183;SDS011;18176;49.502;11.754;2023-10-13T20:03:41;7.93;;;3.80;;
21183;SDS011;18176;49.502;11.754;2023-10-13T20:07:42;10.18;;;3.40;;
21183;SDS011;18176;49.502;11.754;2023-10-13T20:11:42;10.63;;;4.03;;
21183;SDS011;18176;49.502;11.754;2023-10-13T20:15:44;10.45;;;3.83;;
21183;SDS011;18176;49.502;11.754;2023-10-13T20:19:47;9.45;;;4.15;;
21183;SDS011;18176;49.502;11.754;2023-10-13T20:23:48;14.00;;;4.15;;
21183;SDS011;18176;49.502;11.754;2023-10-13T20:27:48;16.00;;;4.72;;
21183;SDS011;18176;49.502;11.754;2023-10-13T20:31:50;8.55;;;3.50;;
21183;SDS011;18176;49.502;11.754;2023-10-13T20:35:53;12.52;;;3.85;;
21183;SDS011;18176;49.502;11.754;2023-10-13T20:39:54;10.98;;;3.70;;
21183;SDS011;18176;49.502;11.754;2023-10-13T20:43:56;8.98;;;3.10;;
21183;SDS011;18176;49.502;11.754;2023-10-13T20:47:57;12.68;;;4.00;;
21183;SDS011;18176;49.502;11.754;2023-10-13T20:52:00;6.82;;;3.95;;
21183;SDS011;18176;49.502;11.754;2023-10-13T20:56:05;8.38;;;3.60;;
21183;SDS011;18176;49.502;11.754;2023-10-13T21:00:12;7.97;;;4.00;;
21183;SDS011;18176;49.502;11.754;2023-10-13T21:04:19;15.13;;;3.80;;
21183;SDS011;18176;49.502;11.754;2023-10-13T21:08:23;12.95;;;4.07;;
21183;SDS011;18176;49.502;11.754;2023-10-13T21:12:24;10.23;;;3.70;;
21183;SDS011;18176;49.502;11.754;2023-10-13T21:16:25;10.23;;;3.70;;
21183;SDS011;18176;49.502;11.754;2023-10-13T21:20:25;8.88;;;3.88;;
21183;SDS011;18176;49.502;11.754;2023-10-13T21:24:29;13.38;;;3.80;;
21183;SDS011;18176;49.502;11.754;2023-10-13T21:28:30;12.55;;;3.65;;
21183;SDS011;18176;49.502;11.754;2023-10-13T21:32:31;9.20;;;3.88;;
21183;SDS011;18176;49.502;11.754;2023-10-13T21:36:32;9.65;;;3.67;;
21183;SDS011;18176;49.502;11.754;2023-10-13T21:40:38;10.85;;;3.90;;
21183;SDS011;18176;49.502;11.754;2023-10-13T21:44:38;16.15;;;4.13;;
21183;SDS011;18176;49.502;11.754;2023-10-13T21:48:39;12.05;;;3.90;;
21183;SDS011;18176;49.502;11.754;2023-10-13T21:52:40;12.88;;;3.80;;
21183;SDS011;18176;49.502;11.754;2023-10-13T21:56:44;8.48;;;3.63;;
21183;SDS011;18176;49.502;11.754;2023-10-13T22:00:45;9.75;;;3.92;;
21183;SDS011;18176;49.502;11.754;2023-10-13T22:04:56;13.48;;;3.42;;
21183;SDS011;18176;49.502;11.754;2023-10-13T22:08:56;14.52;;;3.92;;
21183;SDS011;18176;49.502;11.754;2023-10-13T22:13:04;12.88;;;3.95;;
21183;SDS011;18176;49.502;11.754;2023-10-13T22:17:04;12.88;;;3.80;;
21183;SDS011;18176;49.502;11.754;2023-10-13T22:21:06;9.85;;;3.95;;
21183;SDS011;18176;49.502;11.754;2023-10-13T22:25:08;11.07;;;3.88;;
21183;SDS011;18176;49.502;11.754;2023-10-13T22:29:15;10.63;;;3.95;;
21183;SDS011;18176;49.502;11.754;2023-10-13T22:33:15;9.73;;;4.00;;
21183;SDS011;18176;49.502;11.754;2023-10-13T22:37:16;9.70;;;4.13;;
21183;SDS011;18176;49.502;11.754;2023-10-13T22:41:16;9.43;;;3.58;;
21183;SDS011;18176;49.502;11.754;2023-10-13T22:45:19;11.20;;;4.60;;
21183;SDS011;18176;49.502;11.754;2023-10-13T22:49:21;9.07;;;5.55;;
21183;SDS011;18176;49.502;11.754;2023-10-13T22:53:21;12.10;;;5.47;;
21183;SDS011;18176;49.502;11.754;2023-10-13T22:57:22;10.25;;;5.80;;
21183;SDS011;18176;49.502;11.754;2023-10-13T23:01:25;9.57;;;5.57;;
21183;SDS011;18176;49.502;11.754;2023-10-13T23:05:25;11.00;;;5.00;;
21183;SDS011;18176;49.502;11.754;2023-10-13T23:09:47;13.93;;;6.70;;
21183;SDS011;18176;49.502;11.754;2023-10-13T23:13:49;17.58;;;8.20;;
21183;SDS011;18176;49.502;11.754;2023-10-13T23:17:55;14.73;;;7.22;;
21183;SDS011;18176;49.502;11.754;2023-10-13T23:21:56;17.95;;;7.60;;
21183;SDS011;18176;49.502;11.754;2023-10-13T23:26:03;13.00;;;6.75;;
21183;SDS011;18176;49.502;11.754;2023-10-13T23:30:04;13.90;;;7.00;;
21183;SDS011;18176;49.502;11.754;2023-10-13T23:34:09;15.60;;;7.40;;
21183;SDS011;18176;49.502;11.754;2023-10-13T23:38:13;15.57;;;6.43;;
21183;SDS011;18176;49.502;11.754;2023-10-13T23:42:21;14.10;;;6.33;;
21183;SDS011;18176;49.502;11.754;2023-10-13T23:46:22;16.73;;;6.93;;
21183;SDS011;18176;49.502;11.754;2023-10-13T23:50:26;14.13;;;6.20;;
21183;SDS011;18176;49.502;11.754;2023-10-13T23:54:27;14.83;;;6.20;;
21183;SDS011;18176;49.502;11.754;2023-10-13T23:58:37;15.90;;;6.10;;
